Time;durP1;ratioP1;P1;durP2;ratioP2;P2;SDS_P1;SDS_P2;PMS_P1;PMS_P2;Temp;Humidity;BMP_temperature;BMP_pressure;BME280_temperature;BME280_humidity;BME280_pressure;Samples;Min_cycle;Max_cycle;Signal;HPM_P1;HPM_P2
2023/12/28 00:02:23;;;;;;;3.28;0.77;;;;;;;4.53;60.09;100425.91;4989981;28;20034;-64
2023/12/28 00:04:49;;;;;;;1.42;0.98;;;;;;;4.16;61.18;100413.78;4957153;28;20459;-64
2023/12/28 00:07:15;;;;;;;1.95;0.60;;;;;;;4.58;60.20;100423.22;4960360;28;20037;-64
2023/12/28 00:09:40;;;;;;;5.75;1.17;;;;;;;4.37;60.31;100409.88;4973378;28;20042;-64
2023/12/28 00:12:06;;;;;;;3.50;0.80;;;;;;;4.54;59.98;100422.47;4962606;28;20104;-70
2023/12/28 00:14:31;;;;;;;2.05;1.15;;;;;;;4.45;60.31;100419.22;4957827;28;20042;-69
2023/12/28 00:16:57;;;;;;;2.03;0.57;;;;;;;4.31;60.23;100422.94;4959388;28;20036;-70
2023/12/28 00:19:22;;;;;;;2.40;1.13;;;;;;;4.63;59.52;100421.38;4957720;28;20494;-69
2023/12/28 00:21:48;;;;;;;4.78;1.02;;;;;;;4.40;60.02;100435.69;4961987;28;20116;-69
2023/12/28 00:24:16;;;;;;;3.28;1.08;;;;;;;4.04;61.11;100428.69;4963514;28;20096;-70
2023/12/28 00:26:41;;;;;;;2.47;0.82;;;;;;;4.38;59.98;100444.38;4962726;28;20038;-67
2023/12/28 00:29:07;;;;;;;2.65;1.25;;;;;;;4.43;59.99;100445.97;4960852;28;20109;-66
2023/12/28 00:31:32;;;;;;;2.63;1.30;;;;;;;4.11;60.75;100445.78;4990269;28;20071;-66
2023/12/28 00:33:59;;;;;;;3.70;1.13;;;;;;;4.08;61.15;100454.47;4966230;28;20085;-66
2023/12/28 00:36:25;;;;;;;3.95;0.82;;;;;;;4.46;59.92;100460.59;4958438;28;20505;-66
2023/12/28 00:38:50;;;;;;;1.45;0.70;;;;;;;4.01;61.14;100458.91;4958717;28;20714;-66
2023/12/28 00:41:15;;;;;;;3.08;1.48;;;;;;;4.22;60.99;100452.44;4963517;28;20462;-66
2023/12/28 00:43:41;;;;;;;2.70;1.17;;;;;;;4.36;60.73;100449.59;4989927;28;20031;-65
2023/12/28 00:46:07;;;;;;;3.97;1.35;;;;;;;3.95;61.19;100453.84;4957776;28;20663;-66
2023/12/28 00:48:32;;;;;;;4.43;0.77;;;;;;;4.28;60.66;100459.25;4960186;28;20034;-67
2023/12/28 00:51:01;;;;;;;2.35;1.40;;;;;;;4.04;61.75;100470.91;4956261;28;20042;-65
2023/12/28 00:53:26;;;;;;;2.40;1.10;;;;;;;4.18;61.26;100458.56;4960027;28;20069;-66
2023/12/28 00:55:52;;;;;;;2.85;1.10;;;;;;;3.89;61.86;100463.44;4957272;28;20062;-66
2023/12/28 00:58:17;;;;;;;3.70;1.88;;;;;;;4.23;61.30;100466.25;4961933;28;20061;-65
2023/12/28 01:00:43;;;;;;;2.30;1.50;;;;;;;4.54;60.46;100457.81;4960553;28;20070;-65
2023/12/28 01:03:08;;;;;;;2.00;1.25;;;;;;;4.38;61.39;100470.25;4957819;28;20549;-64
2023/12/28 01:05:34;;;;;;;4.25;1.48;;;;;;;4.29;61.49;100473.88;4957087;28;20043;-65
2023/12/28 01:08:00;;;;;;;3.97;1.00;;;;;;;4.38;61.25;100490.94;4955718;28;20091;-64
2023/12/28 01:10:26;;;;;;;1.75;1.15;;;;;;;4.09;62.40;100473.41;4959555;28;20035;-65
2023/12/28 01:12:51;;;;;;;3.25;1.58;;;;;;;4.17;61.95;100480.16;4971078;28;20650;-66
2023/12/28 01:15:20;;;;;;;1.75;1.20;;;;;;;4.34;61.51;100477.22;4963186;28;20049;-65
2023/12/28 01:17:46;;;;;;;2.10;1.23;;;;;;;4.69;60.23;100483.38;4962392;28;21238;-65
2023/12/28 01:20:12;;;;;;;3.80;1.63;;;;;;;4.48;61.29;100484.69;4958930;28;20058;-66
2023/12/28 01:22:37;;;;;;;3.20;1.67;;;;;;;4.29;61.32;100476.44;4987795;28;20034;-68
2023/12/28 01:25:03;;;;;;;4.95;1.42;;;;;;;4.04;62.05;100477.84;4958426;28;20514;-68
2023/12/28 01:27:29;;;;;;;3.65;1.40;;;;;;;4.50;61.18;100489.81;4958755;28;20066;-69
2023/12/28 01:29:55;;;;;;;6.57;2.17;;;;;;;4.57;61.31;100486.25;4972055;28;20129;-69
2023/12/28 01:32:20;;;;;;;2.45;1.35;;;;;;;4.48;60.94;100491.63;4972196;28;20061;-70
2023/12/28 01:34:46;;;;;;;5.25;1.73;;;;;;;4.59;60.83;100502.59;4954261;28;20150;-69
2023/12/28 01:37:11;;;;;;;3.42;1.38;;;;;;;4.79;60.24;100486.66;4962708;28;20156;-68
2023/12/28 01:39:36;;;;;;;4.63;1.17;;;;;;;4.71;60.68;100491.97;4954333;28;20039;-68
2023/12/28 01:42:03;;;;;;;2.72;1.98;;;;;;;4.63;60.28;100494.75;4957626;28;20031;-68
2023/12/28 01:44:29;;;;;;;3.30;1.95;;;;;;;4.49;61.21;100494.16;4975168;28;20405;-68
2023/12/28 01:46:54;;;;;;;3.10;1.40;;;;;;;4.57;60.90;100501.78;4956741;28;20031;-68
2023/12/28 01:49:20;;;;;;;6.00;1.60;;;;;;;4.58;60.69;100503.47;4958562;28;20042;-71
2023/12/28 01:51:47;;;;;;;3.90;1.38;;;;;;;4.70;60.37;100515.28;4957648;28;22828;-69
2023/12/28 01:54:13;;;;;;;3.70;1.63;;;;;;;4.62;60.79;100513.72;4965138;28;20077;-65
2023/12/28 01:56:39;;;;;;;3.17;1.30;;;;;;;4.54;60.96;100520.81;4954335;28;20335;-64
2023/12/28 01:59:05;;;;;;;2.28;1.48;;;;;;;4.50;60.69;100513.13;4961280;28;20041;-65
2023/12/28 02:01:30;;;;;;;4.60;1.58;;;;;;;4.51;61.49;100525.19;4963308;28;20041;-65
2023/12/28 02:03:57;;;;;;;3.45;1.65;;;;;;;4.27;62.04;100522.19;4958958;28;20054;-68
2023/12/28 02:06:23;;;;;;;2.33;1.45;;;;;;;4.48;61.20;100525.28;4957084;28;20062;-65
2023/12/28 02:08:49;;;;;;;5.15;1.45;;;;;;;4.81;60.26;100529.75;4961983;28;20105;-64
2023/12/28 02:11:14;;;;;;;3.47;2.13;;;;;;;4.55;60.90;100521.66;4958005;28;20042;-64
2023/12/28 02:13:41;;;;;;;7.32;1.80;;;;;;;4.34;62.15;100523.81;4951748;28;20105;-64
2023/12/28 02:16:31;;;;;;;8.23;2.10;;;;;;;4.76;60.82;100518.59;4962856;28;20153;-66
2023/12/28 02:19:03;;;;;;;2.67;1.45;;;;;;;4.54;61.65;100517.34;4987831;28;20113;-66
2023/12/28 02:21:31;;;;;;;4.13;1.38;;;;;;;4.68;60.97;100528.28;4946801;28;20049;-65
2023/12/28 02:23:57;;;;;;;3.22;1.83;;;;;;;4.56;61.27;100524.19;4954890;28;20125;-65
2023/12/28 02:26:22;;;;;;;10.25;2.20;;;;;;;4.61;61.67;100521.53;4956622;28;20890;-66
2023/12/28 02:28:49;;;;;;;10.13;2.45;;;;;;;4.55;61.77;100524.25;4959546;28;20072;-66
2023/12/28 02:31:21;;;;;;;2.58;1.50;;;;;;;4.19;62.76;100518.94;4960872;28;20044;-66
2023/12/28 02:33:54;;;;;;;4.03;1.40;;;;;;;4.47;62.17;100513.19;4952345;28;20054;-66
2023/12/28 02:36:23;;;;;;;5.68;1.40;;;;;;;4.70;61.63;100515.28;4965994;28;20033;-65
2023/12/28 02:38:50;;;;;;;6.63;1.13;;;;;;;4.50;61.88;100505.34;4958631;28;20108;-66
2023/12/28 02:41:17;;;;;;;6.72;1.75;;;;;;;4.17;62.48;100510.34;4960651;28;20049;-65
2023/12/28 02:43:43;;;;;;;3.42;1.33;;;;;;;4.59;61.59;100510.38;4958683;28;20038;-64
2023/12/28 02:46:08;;;;;;;4.18;1.55;;;;;;;4.46;61.99;100507.16;4958062;28;20049;-64
2023/12/28 02:48:34;;;;;;;8.40;1.60;;;;;;;4.69;62.14;100514.44;4955618;28;20082;-65
2023/12/28 02:50:59;;;;;;;6.60;2.15;;;;;;;4.72;61.63;100498.00;4960933;28;20073;-64
2023/12/28 02:53:25;;;;;;;8.75;1.48;;;;;;;4.40;63.12;100509.88;4955274;28;20676;-65
2023/12/28 02:55:50;;;;;;;7.22;2.10;;;;;;;4.22;63.28;100499.00;4982619;28;20417;-66
2023/12/28 02:58:15;;;;;;;5.63;1.40;;;;;;;4.69;62.25;100501.50;4987485;28;20034;-64
2023/12/28 03:00:41;;;;;;;4.78;1.60;;;;;;;4.42;62.29;100500.34;4954927;28;20118;-67
2023/12/28 03:03:07;;;;;;;9.10;2.85;;;;;;;4.79;61.65;100508.19;4958522;28;20038;-67
2023/12/28 03:05:32;;;;;;;6.68;1.48;;;;;;;4.30;62.81;100500.63;4954300;28;20106;-64
2023/12/28 03:07:58;;;;;;;14.18;1.90;;;;;;;4.62;62.07;100508.56;4957457;28;20046;-65
2023/12/28 03:10:24;;;;;;;10.07;2.50;;;;;;;4.61;62.19;100503.44;4955384;28;20096;-66
2023/12/28 03:12:49;;;;;;;6.13;1.95;;;;;;;4.14;63.57;100500.03;4954818;28;20422;-66
2023/12/28 03:15:16;;;;;;;6.65;1.70;;;;;;;4.42;62.06;100485.66;4941365;28;20035;-64
2023/12/28 03:17:42;;;;;;;7.22;1.70;;;;;;;4.73;61.68;100489.34;4956791;28;20033;-64
2023/12/28 03:20:10;;;;;;;3.28;1.20;;;;;;;4.46;62.40;100485.63;4956440;28;20053;-65
2023/12/28 03:22:36;;;;;;;10.23;2.78;;;;;;;4.55;62.42;100499.22;4956126;28;20027;-65
2023/12/28 03:25:03;;;;;;;4.70;1.60;;;;;;;4.55;62.06;100493.19;4962929;28;20050;-65
2023/12/28 03:27:30;;;;;;;7.70;1.90;;;;;;;4.32;62.84;100493.63;4954870;28;20033;-65
2023/12/28 03:29:55;;;;;;;3.25;1.00;;;;;;;4.87;60.73;100491.63;4959306;28;20117;-64
2023/12/28 03:32:20;;;;;;;8.40;1.80;;;;;;;4.46;62.11;100480.44;4958900;28;20149;-64
2023/12/28 03:34:46;;;;;;;4.03;1.42;;;;;;;4.52;62.40;100482.88;4957488;28;20096;-64
2023/12/28 03:37:12;;;;;;;3.60;1.85;;;;;;;4.20;63.03;100502.50;4960049;28;20120;-64
2023/12/28 03:39:37;;;;;;;13.35;2.75;;;;;;;4.60;62.59;100484.44;4959531;28;20046;-64
2023/12/28 03:42:03;;;;;;;4.57;1.38;;;;;;;4.73;61.67;100495.38;4959289;28;20034;-64
2023/12/28 03:44:28;;;;;;;5.50;1.40;;;;;;;4.89;60.88;100474.38;4957785;28;20156;-65
2023/12/28 03:46:54;;;;;;;5.75;1.70;;;;;;;4.83;61.17;100480.47;4973672;28;20034;-70
2023/12/28 03:49:20;;;;;;;7.65;1.30;;;;;;;5.08;60.84;100480.84;4960331;28;20041;-66
2023/12/28 03:51:51;;;;;;;2.88;0.82;;;;;;;4.65;61.73;100481.75;4973976;28;20473;-67
2023/12/28 03:54:17;;;;;;;3.75;1.10;;;;;;;4.48;61.85;100476.09;4956133;28;20038;-67
2023/12/28 03:56:43;;;;;;;2.92;0.82;;;;;;;4.77;61.51;100471.13;4943749;28;20096;-66
2023/12/28 03:59:09;;;;;;;3.67;0.98;;;;;;;5.04;60.31;100461.06;4958245;28;20055;-67
2023/12/28 04:01:35;;;;;;;3.95;1.33;;;;;;;4.82;61.41;100479.63;4965324;28;20026;-66
2023/12/28 04:04:01;;;;;;;3.78;1.25;;;;;;;4.47;61.81;100477.81;4959515;28;20108;-68
2023/12/28 04:06:27;;;;;;;5.00;1.42;;;;;;;4.60;61.54;100470.63;4959340;28;20084;-68
2023/12/28 04:08:52;;;;;;;4.18;1.13;;;;;;;5.05;60.19;100473.97;4981619;28;20633;-67
2023/12/28 04:11:18;;;;;;;3.50;1.17;;;;;;;4.80;60.83;100460.69;4967362;28;20038;-66
2023/12/28 04:13:43;;;;;;;4.65;1.17;;;;;;;5.09;59.94;100456.63;4958338;28;20038;-67
2023/12/28 04:16:15;;;;;;;5.68;1.27;;;;;;;4.87;60.54;100450.22;4958522;28;20038;-65
2023/12/28 04:18:42;;;;;;;2.58;0.80;;;;;;;4.64;61.26;100454.16;4960203;28;20046;-66
2023/12/28 04:21:09;;;;;;;5.55;1.30;;;;;;;4.85;61.10;100458.00;4989506;28;20050;-65
2023/12/28 04:23:36;;;;;;;5.25;0.95;;;;;;;4.93;60.70;100445.75;4958610;28;20034;-65
2023/12/28 04:26:01;;;;;;;4.80;1.38;;;;;;;4.66;61.28;100449.81;4947598;28;20050;-64
2023/12/28 04:28:27;;;;;;;6.18;1.35;;;;;;;5.37;59.60;100440.38;4960276;28;20042;-65
2023/12/28 04:30:52;;;;;;;5.35;1.33;;;;;;;4.56;61.47;100443.13;4955385;28;20065;-64
2023/12/28 04:33:19;;;;;;;3.63;1.10;;;;;;;4.72;61.16;100439.31;4966968;28;20039;-64
2023/12/28 04:35:45;;;;;;;7.30;1.23;;;;;;;4.94;60.77;100444.03;4955930;28;20101;-64
2023/12/28 04:38:11;;;;;;;6.65;1.20;;;;;;;4.38;61.87;100447.78;4959161;28;20031;-65
2023/12/28 04:40:37;;;;;;;4.70;1.25;;;;;;;5.30;59.64;100451.78;4952958;28;20563;-65
2023/12/28 04:43:02;;;;;;;8.25;1.10;;;;;;;5.15;60.00;100440.09;4966395;28;20139;-66
2023/12/28 04:45:28;;;;;;;3.58;0.82;;;;;;;5.37;59.54;100436.06;4962425;28;20857;-65
2023/12/28 04:47:54;;;;;;;5.05;1.45;;;;;;;5.45;59.66;100433.28;4971057;28;20081;-65
2023/12/28 04:50:20;;;;;;;4.88;1.00;;;;;;;5.31;59.92;100425.00;4972409;28;20035;-65
2023/12/28 04:52:45;;;;;;;3.85;0.75;;;;;;;5.18;60.10;100430.47;4963682;28;20064;-65
2023/12/28 04:55:11;;;;;;;5.15;1.33;;;;;;;5.06;60.90;100420.44;4971723;28;20054;-65
2023/12/28 04:57:36;;;;;;;2.50;1.02;;;;;;;5.03;60.46;100423.06;4954861;28;20035;-64
2023/12/28 05:00:03;;;;;;;5.15;0.85;;;;;;;4.88;60.90;100405.31;4986146;28;20054;-65
2023/12/28 05:02:28;;;;;;;8.30;1.13;;;;;;;5.35;59.85;100437.00;4962307;28;20065;-65
2023/12/28 05:04:54;;;;;;;4.03;1.10;;;;;;;4.86;60.97;100425.22;4955186;28;21114;-67
2023/12/28 05:07:19;;;;;;;4.45;0.73;;;;;;;5.67;58.99;100426.63;4960447;28;20126;-67
2023/12/28 05:09:45;;;;;;;4.47;0.90;;;;;;;5.42;59.21;100428.19;4957173;28;20525;-68
2023/12/28 05:12:10;;;;;;;4.18;1.58;;;;;;;5.27;59.83;100420.78;4958963;28;20457;-65
2023/12/28 05:14:36;;;;;;;6.55;1.08;;;;;;;4.91;60.51;100406.09;4971141;28;20069;-63
2023/12/28 05:17:01;;;;;;;9.60;1.17;;;;;;;5.38;59.83;100423.97;4972569;28;20034;-64
2023/12/28 05:19:27;;;;;;;3.83;0.80;;;;;;;5.44;59.25;100406.50;4955649;28;20500;-65
2023/12/28 05:21:52;;;;;;;3.40;1.83;;;;;;;5.58;58.93;100393.19;4957613;28;20104;-64
2023/12/28 05:24:18;;;;;;;4.25;0.95;;;;;;;5.58;58.71;100407.88;4956684;28;20045;-64
2023/12/28 05:26:44;;;;;;;5.88;0.63;;;;;;;5.47;59.30;100392.63;4984105;28;20563;-65
2023/12/28 05:29:10;;;;;;;12.13;1.65;;;;;;;5.37;59.50;100398.91;4953918;28;20074;-64
2023/12/28 05:31:36;;;;;;;5.80;0.88;;;;;;;5.34;59.86;100409.38;4957634;28;20074;-69
2023/12/28 05:34:02;;;;;;;4.65;0.93;;;;;;;5.76;58.80;100411.72;4955112;28;20098;-69
2023/12/28 05:36:27;;;;;;;9.05;1.48;;;;;;;5.35;60.17;100406.75;4958177;28;20054;-69
2023/12/28 05:38:53;;;;;;;4.78;1.23;;;;;;;5.14;60.15;100405.53;4952970;28;20703;-71
2023/12/28 05:41:18;;;;;;;4.90;0.93;;;;;;;5.36;59.33;100405.84;4964489;28;20034;-70
2023/12/28 05:43:44;;;;;;;7.40;1.23;;;;;;;5.15;60.28;100383.94;4955480;28;20050;-70
2023/12/28 05:46:09;;;;;;;4.75;1.25;;;;;;;5.30;59.64;100412.94;4954871;28;20031;-69
2023/12/28 05:48:35;;;;;;;10.57;0.93;;;;;;;5.66;59.12;100411.97;4957341;28;20417;-69
2023/12/28 05:51:00;;;;;;;2.28;0.77;;;;;;;5.41;59.80;100397.94;4953779;28;20130;-69
2023/12/28 05:53:27;;;;;;;4.82;0.93;;;;;;;5.63;59.19;100396.47;4959298;28;20072;-70
2023/12/28 05:55:53;;;;;;;6.43;0.88;;;;;;;5.73;58.45;100410.06;4953592;28;20101;-66
2023/12/28 05:58:19;;;;;;;3.08;0.68;;;;;;;5.30;59.51;100408.63;4959713;28;20030;-67
2023/12/28 06:00:48;;;;;;;3.45;0.73;;;;;;;5.78;58.70;100405.59;4953916;28;20109;-65
2023/12/28 06:03:14;;;;;;;5.97;1.00;;;;;;;5.33;59.31;100397.31;4954460;28;20614;-66
2023/12/28 06:05:40;;;;;;;9.93;1.02;;;;;;;5.62;58.77;100399.97;4952759;28;20043;-66
2023/12/28 06:08:06;;;;;;;10.80;1.00;;;;;;;5.06;60.31;100386.75;4954195;28;20034;-66
2023/12/28 06:10:31;;;;;;;8.20;1.08;;;;;;;5.71;58.46;100398.03;4955129;28;20387;-66
2023/12/28 06:12:57;;;;;;;7.47;0.93;;;;;;;5.29;60.01;100403.47;4950469;28;20038;-66
2023/12/28 06:15:23;;;;;;;4.57;0.77;;;;;;;5.50;59.22;100400.28;4957600;28;20517;-67
2023/12/28 06:17:48;;;;;;;6.28;1.23;;;;;;;5.67;58.62;100413.66;4943140;28;20038;-65
2023/12/28 06:20:14;;;;;;;3.15;0.60;;;;;;;5.00;60.12;100412.81;4985452;28;20034;-66
2023/12/28 06:22:39;;;;;;;9.43;2.03;;;;;;;5.62;58.49;100394.81;4961133;28;20026;-66
2023/12/28 06:25:06;;;;;;;5.53;0.45;;;;;;;5.42;59.38;100412.63;4953079;28;20108;-67
2023/12/28 06:27:32;;;;;;;6.18;1.05;;;;;;;5.30;59.62;100403.44;4958855;28;20037;-70
2023/12/28 06:29:57;;;;;;;5.65;0.88;;;;;;;4.89;60.32;100388.91;4959566;28;21165;-69
2023/12/28 06:32:23;;;;;;;11.10;0.88;;;;;;;5.24;59.22;100388.88;4971313;28;20035;-69
2023/12/28 06:34:49;;;;;;;2.70;0.43;;;;;;;5.37;59.31;100388.53;4954347;28;20039;-69
2023/12/28 06:37:15;;;;;;;3.90;0.77;;;;;;;5.76;58.25;100390.97;4953266;28;20058;-69
2023/12/28 06:39:41;;;;;;;7.22;0.98;;;;;;;5.13;59.48;100375.34;4969201;28;20034;-69
2023/12/28 06:42:06;;;;;;;5.20;0.50;;;;;;;5.43;59.47;100393.56;4954933;28;20404;-69
2023/12/28 06:44:32;;;;;;;5.47;0.93;;;;;;;5.51;58.68;100395.97;4959351;28;20421;-70
2023/12/28 06:46:58;;;;;;;11.43;1.25;;;;;;;5.28;59.46;100401.75;4941479;28;20050;-69
2023/12/28 06:49:24;;;;;;;6.57;1.27;;;;;;;5.28;58.71;100413.00;4954584;28;20062;-70
2023/12/28 06:51:51;;;;;;;7.88;0.65;;;;;;;5.48;58.78;100409.88;4954784;28;20117;-69
2023/12/28 06:54:16;;;;;;;9.77;0.77;;;;;;;5.66;58.47;100409.38;4985941;28;20043;-69
2023/12/28 06:56:42;;;;;;;9.82;2.05;;;;;;;5.60;58.72;100416.47;4952510;28;20427;-70
2023/12/28 06:59:12;;;;;;;8.43;1.33;;;;;;;5.84;57.68;100409.78;4953172;28;20093;-70
2023/12/28 07:01:38;;;;;;;13.48;2.03;;;;;;;5.92;57.73;100417.34;4954545;28;20031;-69
2023/12/28 07:04:04;;;;;;;5.78;1.08;;;;;;;5.83;58.08;100414.09;4955020;28;20397;-70
2023/12/28 07:06:30;;;;;;;9.23;1.38;;;;;;;5.85;58.02;100416.66;4957065;28;20045;-70
2023/12/28 07:08:56;;;;;;;13.65;0.50;;;;;;;6.25;56.85;100415.53;4966635;28;20198;-70
2023/12/28 07:11:22;;;;;;;8.73;1.13;;;;;;;5.94;57.54;100411.22;4972466;28;20197;-67
2023/12/28 07:13:47;;;;;;;6.63;1.38;;;;;;;6.20;57.22;100412.22;4952578;28;20039;-66
2023/12/28 07:16:13;;;;;;;5.35;0.60;;;;;;;6.29;56.68;100405.03;4956015;28;20062;-66
2023/12/28 07:18:38;;;;;;;5.45;0.70;;;;;;;5.77;58.39;100414.28;4971612;28;20764;-65
2023/12/28 07:21:05;;;;;;;8.25;0.95;;;;;;;5.83;57.94;100426.22;4954297;28;20042;-66
2023/12/28 07:23:31;;;;;;;7.75;0.80;;;;;;;6.23;57.12;100425.09;4976023;28;20038;-66
2023/12/28 07:25:57;;;;;;;7.22;0.90;;;;;;;6.37;55.99;100402.19;4958706;28;20130;-65
2023/12/28 07:28:22;;;;;;;11.55;0.88;;;;;;;6.07;56.92;100391.81;4959506;28;20062;-65
2023/12/28 07:30:48;;;;;;;11.32;1.20;;;;;;;6.02;57.77;100405.81;4953599;28;20105;-65
2023/12/28 07:33:13;;;;;;;4.07;0.57;;;;;;;5.98;57.37;100401.59;4957759;28;20038;-65
2023/12/28 07:35:39;;;;;;;6.88;1.13;;;;;;;5.57;58.40;100386.31;4970141;28;20062;-64
2023/12/28 07:38:05;;;;;;;8.38;1.65;;;;;;;5.60;58.34;100406.94;4959562;28;20053;-64
2023/12/28 07:40:31;;;;;;;4.78;0.90;;;;;;;6.16;57.27;100397.63;4954859;28;20043;-64
2023/12/28 07:42:56;;;;;;;10.80;0.50;;;;;;;5.90;57.66;100414.78;4953815;28;20038;-66
2023/12/28 07:45:24;;;;;;;6.95;1.15;;;;;;;6.43;56.44;100421.94;4947446;28;20050;-65
2023/12/28 07:47:52;;;;;;;11.68;1.83;;;;;;;6.08;56.93;100424.66;4950758;28;20525;-65
2023/12/28 07:50:18;;;;;;;10.20;0.60;;;;;;;5.99;57.26;100419.69;4951440;28;20057;-66
2023/12/28 07:52:45;;;;;;;8.30;1.38;;;;;;;6.28;57.02;100429.31;4983975;28;20042;-66
2023/12/28 07:55:11;;;;;;;9.07;0.90;;;;;;;6.42;56.29;100434.09;4954212;28;20034;-66
2023/12/28 07:57:36;;;;;;;7.20;1.35;;;;;;;6.19;56.90;100449.44;4956765;28;20037;-67
2023/12/28 08:00:03;;;;;;;10.25;1.10;;;;;;;5.74;57.95;100449.81;4958012;28;20398;-65
2023/12/28 08:02:29;;;;;;;7.80;0.75;;;;;;;6.57;55.87;100443.16;4958423;28;20035;-66
2023/12/28 08:04:55;;;;;;;14.60;1.48;;;;;;;5.71;57.96;100455.09;4959303;28;20038;-65
2023/12/28 08:07:21;;;;;;;7.55;0.98;;;;;;;6.00;57.02;100447.38;4965873;28;20042;-65
2023/12/28 08:09:47;;;;;;;15.25;1.42;;;;;;;6.42;56.15;100456.63;4955828;28;20246;-65
2023/12/28 08:12:12;;;;;;;10.48;1.38;;;;;;;5.86;57.22;100472.84;4956737;28;20501;-64
2023/12/28 08:14:38;;;;;;;12.13;1.77;;;;;;;6.42;55.93;100465.25;4963192;28;20035;-67
2023/12/28 08:17:10;;;;;;;8.00;1.30;;;;;;;6.17;56.34;100465.06;4953850;28;20042;-66
2023/12/28 08:19:35;;;;;;;3.65;0.70;;;;;;;6.38;55.97;100479.19;4957094;28;20124;-64
2023/12/28 08:22:02;;;;;;;10.57;1.08;;;;;;;6.21;55.91;100486.56;4956936;28;20404;-66
2023/12/28 08:24:28;;;;;;;7.78;1.13;;;;;;;6.59;55.20;100479.47;4955829;28;20043;-67
2023/12/28 08:26:58;;;;;;;9.90;1.45;;;;;;;6.22;55.69;100491.72;4957630;28;20473;-65
2023/12/28 08:29:23;;;;;;;10.18;1.10;;;;;;;6.22;56.05;100493.47;4969717;28;20673;-64
2023/12/28 08:31:52;;;;;;;11.38;1.17;;;;;;;6.28;55.76;100493.31;4954044;28;20065;-63
2023/12/28 08:34:18;;;;;;;15.23;1.98;;;;;;;6.46;55.76;100490.22;4954638;28;20074;-65
2023/12/28 08:36:44;;;;;;;14.98;1.98;;;;;;;6.75;54.68;100488.47;4966145;28;20106;-64
2023/12/28 08:39:10;;;;;;;10.10;1.38;;;;;;;6.34;55.97;100487.97;4951797;28;20049;-66
2023/12/28 08:41:36;;;;;;;12.15;1.10;;;;;;;6.60;55.02;100504.56;4989249;28;20035;-65
2023/12/28 08:44:02;;;;;;;13.05;1.73;;;;;;;6.57;55.41;100486.44;4956170;28;20039;-64
2023/12/28 08:46:28;;;;;;;13.52;1.70;;;;;;;6.80;54.85;100502.22;4955765;28;20568;-67
2023/12/28 08:48:54;;;;;;;10.35;1.33;;;;;;;6.46;56.06;100504.94;4955154;28;20026;-66
2023/12/28 08:51:20;;;;;;;11.00;1.02;;;;;;;6.90;54.87;100490.63;4956284;28;20046;-66
2023/12/28 08:53:46;;;;;;;20.98;2.70;;;;;;;6.37;55.71;100503.44;4957129;28;20045;-65
2023/12/28 08:56:22;;;;;;;18.13;1.88;;;;;;;6.76;55.04;100505.78;4953182;28;20081;-64
2023/12/28 08:58:48;;;;;;;9.85;1.08;;;;;;;6.93;54.79;100492.28;4958465;28;20039;-64
2023/12/28 09:01:21;;;;;;;12.77;1.08;;;;;;;6.97;54.85;100495.63;4962522;28;20042;-65
2023/12/28 09:03:52;;;;;;;20.25;2.13;;;;;;;6.76;55.13;100505.78;4964250;28;20034;-64
2023/12/28 09:06:18;;;;;;;12.98;1.33;;;;;;;6.50;55.91;100497.00;4969657;28;20153;-64
2023/12/28 09:08:46;;;;;;;28.05;1.88;;;;;;;6.65;55.53;100513.91;4988493;28;20038;-64
2023/12/28 09:11:12;;;;;;;11.30;1.63;;;;;;;6.26;56.39;100500.25;4951685;28;20973;-65
2023/12/28 09:13:41;;;;;;;14.70;2.28;;;;;;;6.90;55.09;100523.56;4958656;28;20613;-65
2023/12/28 09:16:14;;;;;;;7.07;2.03;;;;;;;7.19;54.48;100520.06;4955018;28;20065;-64
2023/12/28 09:18:40;;;;;;;13.70;1.83;;;;;;;6.98;54.46;100507.75;4956962;28;20760;-65
2023/12/28 09:21:07;;;;;;;15.18;2.20;;;;;;;7.03;54.85;100513.66;4955040;28;20069;-65
2023/12/28 09:23:34;;;;;;;18.13;1.35;;;;;;;6.62;55.90;100502.72;4963632;28;20035;-64
2023/12/28 09:26:00;;;;;;;15.98;1.80;;;;;;;6.58;55.95;100517.56;4954261;28;20112;-64
2023/12/28 09:28:26;;;;;;;9.85;1.23;;;;;;;7.23;54.39;100518.22;4952200;28;20153;-65
2023/12/28 09:30:52;;;;;;;13.65;2.15;;;;;;;6.42;56.31;100508.53;4954892;28;20051;-63
2023/12/28 09:33:17;;;;;;;6.40;1.35;;;;;;;6.74;55.81;100507.56;4955755;28;20038;-64
2023/12/28 09:35:43;;;;;;;20.63;2.00;;;;;;;6.77;55.64;100515.28;4962356;28;20030;-64
2023/12/28 09:38:09;;;;;;;15.55;2.58;;;;;;;6.63;55.93;100499.25;4950062;28;20245;-64
2023/12/28 09:40:38;;;;;;;10.57;2.78;;;;;;;6.72;55.74;100518.91;4955919;28;20030;-64
2023/12/28 09:43:15;;;;;;;18.80;2.00;;;;;;;7.28;54.22;100535.34;4952637;28;20760;-64
2023/12/28 09:45:40;;;;;;;11.48;1.08;;;;;;;6.67;55.44;100519.06;4954482;28;20030;-65
2023/12/28 09:48:06;;;;;;;23.13;2.78;;;;;;;6.88;55.34;100525.34;4951883;28;21072;-64
2023/12/28 09:50:32;;;;;;;19.77;2.00;;;;;;;6.86;54.74;100535.81;4955408;28;20783;-65
2023/12/28 09:52:58;;;;;;;20.40;2.00;;;;;;;6.76;55.46;100549.94;4953942;28;20042;-65
2023/12/28 09:55:25;;;;;;;12.40;2.35;;;;;;;6.98;54.84;100525.94;4953377;28;20043;-65
2023/12/28 09:57:51;;;;;;;12.88;1.73;;;;;;;7.10;54.52;100531.59;4957379;28;20639;-64
2023/12/28 10:00:16;;;;;;;15.25;2.13;;;;;;;6.79;55.18;100542.06;4949997;28;20567;-64
2023/12/28 10:02:44;;;;;;;17.42;2.22;;;;;;;7.01;54.46;100537.06;4956344;28;20034;-64
2023/12/28 10:05:14;;;;;;;15.82;1.25;;;;;;;7.08;54.22;100548.13;4949924;28;20046;-64
2023/12/28 10:07:44;;;;;;;24.80;1.77;;;;;;;7.04;54.78;100551.72;4962979;28;20033;-65
2023/12/28 10:10:10;;;;;;;17.85;2.40;;;;;;;6.96;54.38;100569.31;4948076;28;20061;-64
2023/12/28 10:12:37;;;;;;;17.67;1.58;;;;;;;7.11;54.21;100558.44;4955774;28;20069;-63
2023/12/28 10:15:04;;;;;;;15.63;1.70;;;;;;;7.40;53.69;100560.13;4952728;28;20544;-64
2023/12/28 10:17:33;;;;;;;15.93;2.08;;;;;;;7.03;54.26;100540.47;4959140;28;20035;-64
2023/12/28 10:20:07;;;;;;;17.33;2.38;;;;;;;7.09;54.66;100576.69;4952972;28;20054;-64
2023/12/28 10:22:32;;;;;;;23.85;1.85;;;;;;;6.77;55.48;100543.00;4955299;28;20066;-64
2023/12/28 10:24:59;;;;;;;15.50;1.65;;;;;;;7.40;53.73;100561.88;4954064;28;20138;-64
2023/12/28 10:27:28;;;;;;;22.02;1.98;;;;;;;7.32;54.40;100562.97;4945993;28;20027;-64
2023/12/28 10:29:55;;;;;;;17.13;2.13;;;;;;;6.54;56.05;100549.72;4955988;28;20097;-64
2023/12/28 10:32:24;;;;;;;13.48;1.42;;;;;;;6.99;55.09;100564.84;4953618;28;20036;-64
2023/12/28 10:34:53;;;;;;;15.02;2.25;;;;;;;6.68;55.48;100564.88;4956312;28;20046;-65
2023/12/28 10:37:20;;;;;;;17.33;2.47;;;;;;;7.26;54.49;100570.09;4965971;28;20152;-64
2023/12/28 10:39:51;;;;;;;15.82;2.70;;;;;;;6.93;55.10;100562.41;4958087;28;20058;-63
2023/12/28 10:42:29;;;;;;;19.30;1.52;;;;;;;7.01;55.38;100572.59;4949020;28;20073;-63
2023/12/28 10:45:07;;;;;;;15.93;1.65;;;;;;;6.70;55.48;100576.09;4955992;28;20038;-65
2023/12/28 10:47:34;;;;;;;14.18;1.90;;;;;;;6.57;56.21;100561.75;4954932;28;20084;-64
2023/12/28 10:50:04;;;;;;;8.27;1.13;;;;;;;7.01;55.32;100572.59;4969577;28;20884;-64
2023/12/28 10:52:31;;;;;;;13.75;1.58;;;;;;;7.08;55.01;100579.31;4955798;28;20053;-64
2023/12/28 10:55:20;;;;;;;12.45;1.60;;;;;;;7.48;54.33;100573.72;4957514;28;20046;-64
2023/12/28 10:58:28;;;;;;;16.45;2.75;;;;;;;7.10;55.30;100572.31;4955395;28;20046;-63
2023/12/28 11:00:58;;;;;;;11.50;1.95;;;;;;;7.33;54.38;100559.47;4956812;28;20227;-64
2023/12/28 11:03:30;;;;;;;18.42;2.25;;;;;;;6.97;55.00;100558.84;4956032;28;21126;-65
2023/12/28 11:05:56;;;;;;;14.68;2.92;;;;;;;6.99;55.30;100577.00;4956998;28;20806;-65
2023/12/28 11:08:22;;;;;;;13.00;2.17;;;;;;;6.72;56.36;100556.13;4949755;28;20092;-64
2023/12/28 11:10:51;;;;;;;13.40;2.25;;;;;;;6.54;56.08;100565.28;4954750;28;20090;-63
2023/12/28 11:13:21;;;;;;;17.05;1.30;;;;;;;7.16;55.10;100553.94;4970013;28;20089;-65
2023/12/28 11:15:47;;;;;;;13.57;2.78;;;;;;;6.83;56.12;100554.06;4952585;28;20051;-63
2023/12/28 11:18:15;;;;;;;16.02;2.72;;;;;;;6.72;55.88;100550.09;4952687;28;20034;-64
2023/12/28 11:20:42;;;;;;;13.45;1.80;;;;;;;6.79;55.55;100565.44;4946589;28;20740;-64
2023/12/28 11:23:09;;;;;;;18.42;2.33;;;;;;;6.93;55.35;100557.22;4980889;28;20480;-63
2023/12/28 11:25:34;;;;;;;20.10;2.75;;;;;;;6.84;55.23;100560.97;4956603;28;20050;-67
2023/12/28 11:28:08;;;;;;;9.65;1.38;;;;;;;7.29;54.59;100557.88;4951786;28;20035;-63
2023/12/28 11:30:36;;;;;;;19.55;2.35;;;;;;;7.07;54.58;100552.47;4950153;28;20046;-64